sensor_id;sensor_type;location;lat;lon;timestamp;temperature;humidity
4390;DHT22;2209;48.982;8.406;2023-05-07T00:00:54;20.20;99.90
4390;DHT22;2209;48.982;8.406;2023-05-07T00:03:16;20.20;99.90
4390;DHT22;2209;48.982;8.406;2023-05-07T00:05:38;20.20;99.90
4390;DHT22;2209;48.982;8.406;2023-05-07T00:08:00;20.20;99.90
4390;DHT22;2209;48.982;8.406;2023-05-07T00:10:25;20.20;99.90
4390;DHT22;2209;48.982;8.406;2023-05-07T00:12:48;20.20;99.90
4390;DHT22;2209;48.982;8.406;2023-05-07T00:15:10;20.20;99.90
4390;DHT22;2209;48.982;8.406;2023-05-07T00:17:33;20.20;99.90
4390;DHT22;2209;48.982;8.406;2023-05-07T00:19:55;20.10;99.90
4390;DHT22;2209;48.982;8.406;2023-05-07T00:22:17;20.10;99.90
4390;DHT22;2209;48.982;8.406;2023-05-07T00:24:39;20.10;99.90
4390;DHT22;2209;48.982;8.406;2023-05-07T00:27:03;20.10;99.90
4390;DHT22;2209;48.982;8.406;2023-05-07T00:29:25;20.10;99.90
4390;DHT22;2209;48.982;8.406;2023-05-07T00:31:49;20.10;99.90
4390;DHT22;2209;48.982;8.406;2023-05-07T00:34:11;20.10;99.90
4390;DHT22;2209;48.982;8.406;2023-05-07T00:36:33;20.10;99.90
4390;DHT22;2209;48.982;8.406;2023-05-07T00:38:57;20.00;99.90
4390;DHT22;2209;48.982;8.406;2023-05-07T00:41:20;20.00;99.90
4390;DHT22;2209;48.982;8.406;2023-05-07T00:43:44;20.00;99.90
4390;DHT22;2209;48.982;8.406;2023-05-07T00:46:06;20.00;99.90
4390;DHT22;2209;48.982;8.406;2023-05-07T00:48:29;19.90;99.90
4390;DHT22;2209;48.982;8.406;2023-05-07T00:50:52;20.00;99.90
4390;DHT22;2209;48.982;8.406;2023-05-07T00:53:14;19.90;99.90
4390;DHT22;2209;48.982;8.406;2023-05-07T00:55:36;19.90;99.90
4390;DHT22;2209;48.982;8.406;2023-05-07T00:57:58;19.90;99.90
4390;DHT22;2209;48.982;8.406;2023-05-07T01:00:22;19.90;99.90
4390;DHT22;2209;48.982;8.406;2023-05-07T01:02:45;19.90;99.90
4390;DHT22;2209;48.982;8.406;2023-05-07T01:05:12;19.90;99.90
4390;DHT22;2209;48.982;8.406;2023-05-07T01:07:34;19.80;99.90
4390;DHT22;2209;48.982;8.406;2023-05-07T01:09:58;19.80;99.90
4390;DHT22;2209;48.982;8.406;2023-05-07T01:12:20;19.80;99.90
4390;DHT22;2209;48.982;8.406;2023-05-07T01:14:43;19.80;99.90
4390;DHT22;2209;48.982;8.406;2023-05-07T01:17:06;19.70;99.90
4390;DHT22;2209;48.982;8.406;2023-05-07T01:19:29;19.70;99.90
4390;DHT22;2209;48.982;8.406;2023-05-07T01:21:56;19.70;99.90
4390;DHT22;2209;48.982;8.406;2023-05-07T01:24:24;19.70;99.90
4390;DHT22;2209;48.982;8.406;2023-05-07T01:26:46;19.70;99.90
4390;DHT22;2209;48.982;8.406;2023-05-07T01:29:08;19.70;99.90
4390;DHT22;2209;48.982;8.406;2023-05-07T01:31:31;19.70;99.90
4390;DHT22;2209;48.982;8.406;2023-05-07T01:33:54;19.70;99.90
4390;DHT22;2209;48.982;8.406;2023-05-07T01:36:18;19.70;99.90
4390;DHT22;2209;48.982;8.406;2023-05-07T01:38:42;19.70;99.90
4390;DHT22;2209;48.982;8.406;2023-05-07T01:41:06;19.70;99.90
4390;DHT22;2209;48.982;8.406;2023-05-07T01:43:29;19.70;99.90
4390;DHT22;2209;48.982;8.406;2023-05-07T01:45:52;19.70;99.90
4390;DHT22;2209;48.982;8.406;2023-05-07T01:48:15;19.70;99.90
4390;DHT22;2209;48.982;8.406;2023-05-07T01:50:37;19.60;99.90
4390;DHT22;2209;48.982;8.406;2023-05-07T01:53:01;19.60;99.90
4390;DHT22;2209;48.982;8.406;2023-05-07T01:55:23;19.60;99.90
4390;DHT22;2209;48.982;8.406;2023-05-07T01:57:47;19.60;99.90
4390;DHT22;2209;48.982;8.406;2023-05-07T02:00:10;19.60;99.90
4390;DHT22;2209;48.982;8.406;2023-05-07T02:02:32;19.60;99.90
4390;DHT22;2209;48.982;8.406;2023-05-07T02:04:54;19.50;99.90
4390;DHT22;2209;48.982;8.406;2023-05-07T02:07:16;19.50;99.90
4390;DHT22;2209;48.982;8.406;2023-05-07T02:09:38;19.50;99.90
4390;DHT22;2209;48.982;8.406;2023-05-07T02:12:00;19.50;99.90
4390;DHT22;2209;48.982;8.406;2023-05-07T02:14:23;19.50;99.90
4390;DHT22;2209;48.982;8.406;2023-05-07T02:16:46;19.40;99.90
4390;DHT22;2209;48.982;8.406;2023-05-07T02:19:08;19.40;99.90
4390;DHT22;2209;48.982;8.406;2023-05-07T02:21:30;19.40;99.90
4390;DHT22;2209;48.982;8.406;2023-05-07T02:23:52;19.40;99.90
4390;DHT22;2209;48.982;8.406;2023-05-07T02:26:14;19.40;99.90
4390;DHT22;2209;48.982;8.406;2023-05-07T02:28:36;19.40;99.90
4390;DHT22;2209;48.982;8.406;2023-05-07T02:31:00;19.30;99.90
4390;DHT22;2209;48.982;8.406;2023-05-07T02:33:22;19.30;99.90
4390;DHT22;2209;48.982;8.406;2023-05-07T02:35:44;19.30;99.90
4390;DHT22;2209;48.982;8.406;2023-05-07T02:38:06;19.20;99.90
4390;DHT22;2209;48.982;8.406;2023-05-07T02:40:28;19.20;99.90
4390;DHT22;2209;48.982;8.406;2023-05-07T02:42:50;19.20;99.90
4390;DHT22;2209;48.982;8.406;2023-05-07T02:45:12;19.20;99.90
4390;DHT22;2209;48.982;8.406;2023-05-07T02:47:36;19.20;99.90
4390;DHT22;2209;48.982;8.406;2023-05-07T02:49:58;19.20;99.90
4390;DHT22;2209;48.982;8.406;2023-05-07T02:52:20;19.20;99.90
4390;DHT22;2209;48.982;8.406;2023-05-07T02:54:42;19.20;99.90
4390;DHT22;2209;48.982;8.406;2023-05-07T02:57:04;19.20;99.90
4390;DHT22;2209;48.982;8.406;2023-05-07T02:59:26;19.10;99.90
4390;DHT22;2209;48.982;8.406;2023-05-07T03:01:48;19.10;99.90
4390;DHT22;2209;48.982;8.406;2023-05-07T03:04:12;19.10;99.90
4390;DHT22;2209;48.982;8.406;2023-05-07T03:06:34;19.10;99.90
4390;DHT22;2209;48.982;8.406;2023-05-07T03:08:56;19.10;99.90
4390;DHT22;2209;48.982;8.406;2023-05-07T03:11:18;19.10;99.90
4390;DHT22;2209;48.982;8.406;2023-05-07T03:13:40;19.10;99.90
4390;DHT22;2209;48.982;8.406;2023-05-07T03:16:02;19.10;99.90
4390;DHT22;2209;48.982;8.406;2023-05-07T03:18:24;19.00;99.90
4390;DHT22;2209;48.982;8.406;2023-05-07T03:20:48;19.00;99.90
4390;DHT22;2209;48.982;8.406;2023-05-07T03:23:10;19.00;99.90
4390;DHT22;2209;48.982;8.406;2023-05-07T03:25:32;19.00;99.90
4390;DHT22;2209;48.982;8.406;2023-05-07T03:27:54;19.00;99.90
4390;DHT22;2209;48.982;8.406;2023-05-07T03:30:16;18.90;99.90
4390;DHT22;2209;48.982;8.406;2023-05-07T03:32:38;18.90;99.90
4390;DHT22;2209;48.982;8.406;2023-05-07T03:35:00;18.90;99.90
4390;DHT22;2209;48.982;8.406;2023-05-07T03:37:24;18.90;99.90
4390;DHT22;2209;48.982;8.406;2023-05-07T03:39:46;18.90;99.90
4390;DHT22;2209;48.982;8.406;2023-05-07T03:42:08;18.90;99.90
4390;DHT22;2209;48.982;8.406;2023-05-07T03:44:30;18.80;99.90
4390;DHT22;2209;48.982;8.406;2023-05-07T03:46:52;18.80;99.90
4390;DHT22;2209;48.982;8.406;2023-05-07T03:49:14;18.80;99.90
4390;DHT22;2209;48.982;8.406;2023-05-07T03:51:36;18.70;99.90
4390;DHT22;2209;48.982;8.406;2023-05-07T03:54:00;18.60;99.90
4390;DHT22;2209;48.982;8.406;2023-05-07T03:56:22;18.60;99.90
4390;DHT22;2209;48.982;8.406;2023-05-07T03:58:47;18.50;99.90
4390;DHT22;2209;48.982;8.406;2023-05-07T04:01:09;18.40;99.90
4390;DHT22;2209;48.982;8.406;2023-05-07T04:03:31;18.40;99.90
4390;DHT22;2209;48.982;8.406;2023-05-07T04:05:53;18.40;99.90
4390;DHT22;2209;48.982;8.406;2023-05-07T04:08:15;18.40;99.90
4390;DHT22;2209;48.982;8.406;2023-05-07T04:10:39;18.50;99.90
4390;DHT22;2209;48.982;8.406;2023-05-07T04:13:01;18.50;99.90
4390;DHT22;2209;48.982;8.406;2023-05-07T04:15:23;18.50;99.90
4390;DHT22;2209;48.982;8.406;2023-05-07T04:17:45;18.50;99.90
4390;DHT22;2209;48.982;8.406;2023-05-07T04:20:09;18.50;99.90
4390;DHT22;2209;48.982;8.406;2023-05-07T04:22:32;18.50;99.90
4390;DHT22;2209;48.982;8.406;2023-05-07T04:24:54;18.50;99.90
4390;DHT22;2209;48.982;8.406;2023-05-07T04:27:18;18.50;99.90
4390;DHT22;2209;48.982;8.406;2023-05-07T04:29:41;18.50;99.90
4390;DHT22;2209;48.982;8.406;2023-05-07T04:32:04;18.50;99.90
4390;DHT22;2209;48.982;8.406;2023-05-07T04:34:26;18.50;99.90
4390;DHT22;2209;48.982;8.406;2023-05-07T04:36:48;18.50;99.90
4390;DHT22;2209;48.982;8.406;2023-05-07T04:39:10;18.50;99.90
4390;DHT22;2209;48.982;8.406;2023-05-07T04:41:33;18.50;99.90
4390;DHT22;2209;48.982;8.406;2023-05-07T04:43:58;18.50;99.90
4390;DHT22;2209;48.982;8.406;2023-05-07T04:46:20;18.50;99.90
4390;DHT22;2209;48.982;8.406;2023-05-07T04:48:42;18.50;99.90
4390;DHT22;2209;48.982;8.406;2023-05-07T04:51:04;18.50;99.90
4390;DHT22;2209;48.982;8.406;2023-05-07T04:53:27;18.50;99.90
4390;DHT22;2209;48.982;8.406;2023-05-07T04:55:54;18.40;99.90
4390;DHT22;2209;48.982;8.406;2023-05-07T04:58:17;18.40;99.90
4390;DHT22;2209;48.982;8.406;2023-05-07T05:00:40;18.40;99.90
4390;DHT22;2209;48.982;8.406;2023-05-07T05:03:03;18.30;99.90
4390;DHT22;2209;48.982;8.406;2023-05-07T05:05:25;18.30;99.90
4390;DHT22;2209;48.982;8.406;2023-05-07T05:07:48;18.30;99.90
4390;DHT22;2209;48.982;8.406;2023-05-07T05:10:10;18.30;99.90
4390;DHT22;2209;48.982;8.406;2023-05-07T05:12:32;18.30;99.90
4390;DHT22;2209;48.982;8.406;2023-05-07T05:14:54;18.30;99.90
4390;DHT22;2209;48.982;8.406;2023-05-07T05:17:17;18.30;99.90
4390;DHT22;2209;48.982;8.406;2023-05-07T05:19:39;18.30;99.90
4390;DHT22;2209;48.982;8.406;2023-05-07T05:22:01;18.30;99.90
4390;DHT22;2209;48.982;8.406;2023-05-07T05:24:24;18.30;99.90
4390;DHT22;2209;48.982;8.406;2023-05-07T05:26:46;18.30;99.90
4390;DHT22;2209;48.982;8.406;2023-05-07T05:29:08;18.30;99.90
4390;DHT22;2209;48.982;8.406;2023-05-07T05:31:30;18.30;99.90
4390;DHT22;2209;48.982;8.406;2023-05-07T05:33:54;18.30;99.90
4390;DHT22;2209;48.982;8.406;2023-05-07T05:36:16;18.30;99.90
4390;DHT22;2209;48.982;8.406;2023-05-07T05:38:38;18.30;99.90
4390;DHT22;2209;48.982;8.406;2023-05-07T05:41:01;18.40;99.90
4390;DHT22;2209;48.982;8.406;2023-05-07T05:43:23;18.40;99.90
4390;DHT22;2209;48.982;8.406;2023-05-07T05:45:45;18.40;99.90
4390;DHT22;2209;48.982;8.406;2023-05-07T05:48:07;18.40;99.90
4390;DHT22;2209;48.982;8.406;2023-05-07T05:50:31;18.40;99.90
4390;DHT22;2209;48.982;8.406;2023-05-07T05:52:53;18.40;99.90
4390;DHT22;2209;48.982;8.406;2023-05-07T05:55:16;18.40;99.90
4390;DHT22;2209;48.982;8.406;2023-05-07T05:57:38;18.40;99.90
4390;DHT22;2209;48.982;8.406;2023-05-07T06:00:00;18.40;99.90
4390;DHT22;2209;48.982;8.406;2023-05-07T06:02:23;18.40;99.90
4390;DHT22;2209;48.982;8.406;2023-05-07T06:04:45;18.40;99.90
4390;DHT22;2209;48.982;8.406;2023-05-07T06:07:08;18.40;99.90
4390;DHT22;2209;48.982;8.406;2023-05-07T06:09:31;18.40;99.90
4390;DHT22;2209;48.982;8.406;2023-05-07T06:11:53;18.40;99.90
4390;DHT22;2209;48.982;8.406;2023-05-07T06:14:15;18.40;99.90
4390;DHT22;2209;48.982;8.406;2023-05-07T06:16:37;18.40;99.90
4390;DHT22;2209;48.982;8.406;2023-05-07T06:18:59;18.40;99.90
4390;DHT22;2209;48.982;8.406;2023-05-07T06:21:21;18.40;99.90
4390;DHT22;2209;48.982;8.406;2023-05-07T06:23:45;18.40;99.90
4390;DHT22;2209;48.982;8.406;2023-05-07T06:26:07;18.50;99.90
4390;DHT22;2209;48.982;8.406;2023-05-07T06:28:29;18.50;99.90
4390;DHT22;2209;48.982;8.406;2023-05-07T06:31:11;18.40;99.90
4390;DHT22;2209;48.982;8.406;2023-05-07T06:33:33;18.50;99.90
4390;DHT22;2209;48.982;8.406;2023-05-07T06:35:55;18.40;99.90
4390;DHT22;2209;48.982;8.406;2023-05-07T06:38:17;18.40;99.90
4390;DHT22;2209;48.982;8.406;2023-05-07T06:40:41;18.50;99.90
4390;DHT22;2209;48.982;8.406;2023-05-07T06:43:03;18.50;99.90
4390;DHT22;2209;48.982;8.406;2023-05-07T06:45:25;18.50;99.90
4390;DHT22;2209;48.982;8.406;2023-05-07T06:47:47;18.50;99.90
4390;DHT22;2209;48.982;8.406;2023-05-07T06:50:09;18.50;99.90
4390;DHT22;2209;48.982;8.406;2023-05-07T06:52:31;18.50;99.90
4390;DHT22;2209;48.982;8.406;2023-05-07T06:54:53;18.50;99.90
4390;DHT22;2209;48.982;8.406;2023-05-07T06:57:17;18.50;99.90
4390;DHT22;2209;48.982;8.406;2023-05-07T06:59:39;18.50;99.90
4390;DHT22;2209;48.982;8.406;2023-05-07T07:02:01;18.50;99.90
4390;DHT22;2209;48.982;8.406;2023-05-07T07:04:23;18.50;99.90
4390;DHT22;2209;48.982;8.406;2023-05-07T07:06:46;18.50;99.90
4390;DHT22;2209;48.982;8.406;2023-05-07T07:09:08;18.50;99.90
4390;DHT22;2209;48.982;8.406;2023-05-07T07:11:30;18.50;99.90
4390;DHT22;2209;48.982;8.406;2023-05-07T07:13:53;18.50;99.90
4390;DHT22;2209;48.982;8.406;2023-05-07T07:16:16;18.50;99.90
4390;DHT22;2209;48.982;8.406;2023-05-07T07:18:38;18.50;99.90
4390;DHT22;2209;48.982;8.406;2023-05-07T07:21:00;18.50;99.90
4390;DHT22;2209;48.982;8.406;2023-05-07T07:23:23;18.40;99.90
4390;DHT22;2209;48.982;8.406;2023-05-07T07:25:45;18.40;99.90
4390;DHT22;2209;48.982;8.406;2023-05-07T07:28:07;18.40;99.90
4390;DHT22;2209;48.982;8.406;2023-05-07T07:30:31;18.30;99.90
4390;DHT22;2209;48.982;8.406;2023-05-07T07:32:53;18.30;99.90
4390;DHT22;2209;48.982;8.406;2023-05-07T07:35:16;18.30;99.90
4390;DHT22;2209;48.982;8.406;2023-05-07T07:37:38;18.30;99.90
4390;DHT22;2209;48.982;8.406;2023-05-07T07:40:00;18.30;99.90
4390;DHT22;2209;48.982;8.406;2023-05-07T07:42:22;18.30;99.90
4390;DHT22;2209;48.982;8.406;2023-05-07T07:44:44;18.20;99.90
4390;DHT22;2209;48.982;8.406;2023-05-07T07:47:07;18.10;99.90
4390;DHT22;2209;48.982;8.406;2023-05-07T07:49:29;18.10;99.90
4390;DHT22;2209;48.982;8.406;2023-05-07T07:51:51;18.10;99.90
4390;DHT22;2209;48.982;8.406;2023-05-07T07:54:13;18.00;99.90
4390;DHT22;2209;48.982;8.406;2023-05-07T07:56:35;18.00;99.90
4390;DHT22;2209;48.982;8.406;2023-05-07T07:58:57;18.10;99.90
4390;DHT22;2209;48.982;8.406;2023-05-07T08:01:19;18.00;99.90
4390;DHT22;2209;48.982;8.406;2023-05-07T08:03:43;18.00;99.90
4390;DHT22;2209;48.982;8.406;2023-05-07T08:06:05;18.00;99.90
4390;DHT22;2209;48.982;8.406;2023-05-07T08:08:27;18.00;99.90
4390;DHT22;2209;48.982;8.406;2023-05-07T08:10:49;18.00;99.90
4390;DHT22;2209;48.982;8.406;2023-05-07T08:13:11;18.10;99.90
4390;DHT22;2209;48.982;8.406;2023-05-07T08:15:33;18.10;99.90
4390;DHT22;2209;48.982;8.406;2023-05-07T08:17:55;18.10;99.90
4390;DHT22;2209;48.982;8.406;2023-05-07T08:20:20;18.20;99.90
4390;DHT22;2209;48.982;8.406;2023-05-07T08:22:42;18.30;99.90
4390;DHT22;2209;48.982;8.406;2023-05-07T08:25:05;18.30;99.90
4390;DHT22;2209;48.982;8.406;2023-05-07T08:27:27;18.40;99.90
4390;DHT22;2209;48.982;8.406;2023-05-07T08:29:49;18.40;99.90
4390;DHT22;2209;48.982;8.406;2023-05-07T08:32:11;18.40;99.90
4390;DHT22;2209;48.982;8.406;2023-05-07T08:34:33;18.40;99.90
4390;DHT22;2209;48.982;8.406;2023-05-07T08:36:57;18.40;99.90
4390;DHT22;2209;48.982;8.406;2023-05-07T08:39:19;18.40;99.90
4390;DHT22;2209;48.982;8.406;2023-05-07T08:41:43;18.50;99.90
4390;DHT22;2209;48.982;8.406;2023-05-07T08:44:06;18.50;99.90
4390;DHT22;2209;48.982;8.406;2023-05-07T08:46:34;18.50;99.90
4390;DHT22;2209;48.982;8.406;2023-05-07T08:48:56;18.50;99.90
4390;DHT22;2209;48.982;8.406;2023-05-07T08:51:20;18.50;99.90
4390;DHT22;2209;48.982;8.406;2023-05-07T08:53:44;18.40;99.90
4390;DHT22;2209;48.982;8.406;2023-05-07T08:56:07;18.40;99.90
4390;DHT22;2209;48.982;8.406;2023-05-07T08:58:29;18.40;99.90
4390;DHT22;2209;48.982;8.406;2023-05-07T09:00:52;18.40;99.90
4390;DHT22;2209;48.982;8.406;2023-05-07T09:03:15;18.40;99.90
4390;DHT22;2209;48.982;8.406;2023-05-07T09:05:37;18.40;99.90
4390;DHT22;2209;48.982;8.406;2023-05-07T09:08:00;18.40;99.90
4390;DHT22;2209;48.982;8.406;2023-05-07T09:10:25;18.40;99.90
4390;DHT22;2209;48.982;8.406;2023-05-07T09:12:48;18.40;99.90
4390;DHT22;2209;48.982;8.406;2023-05-07T09:15:10;18.40;99.90
4390;DHT22;2209;48.982;8.406;2023-05-07T09:17:32;18.40;99.90
4390;DHT22;2209;48.982;8.406;2023-05-07T09:19:55;18.50;99.90
4390;DHT22;2209;48.982;8.406;2023-05-07T09:22:17;18.50;99.90
4390;DHT22;2209;48.982;8.406;2023-05-07T09:24:39;18.50;99.90
4390;DHT22;2209;48.982;8.406;2023-05-07T09:27:03;18.50;99.90
4390;DHT22;2209;48.982;8.406;2023-05-07T09:29:26;18.50;99.90
4390;DHT22;2209;48.982;8.406;2023-05-07T09:31:49;18.50;99.90
4390;DHT22;2209;48.982;8.406;2023-05-07T09:34:11;18.50;99.90
4390;DHT22;2209;48.982;8.406;2023-05-07T09:36:33;18.50;99.90
4390;DHT22;2209;48.982;8.406;2023-05-07T09:38:55;18.50;99.90
4390;DHT22;2209;48.982;8.406;2023-05-07T09:41:18;18.60;99.90
4390;DHT22;2209;48.982;8.406;2023-05-07T09:43:43;18.60;99.90
4390;DHT22;2209;48.982;8.406;2023-05-07T09:46:11;18.60;99.90
4390;DHT22;2209;48.982;8.406;2023-05-07T09:48:37;18.60;99.90
4390;DHT22;2209;48.982;8.406;2023-05-07T09:51:02;18.60;99.90
4390;DHT22;2209;48.982;8.406;2023-05-07T09:53:24;18.60;99.90
4390;DHT22;2209;48.982;8.406;2023-05-07T09:55:47;18.70;99.90
4390;DHT22;2209;48.982;8.406;2023-05-07T09:58:12;18.70;99.90
4390;DHT22;2209;48.982;8.406;2023-05-07T10:00:36;18.70;99.90
4390;DHT22;2209;48.982;8.406;2023-05-07T10:03:00;18.80;99.90
4390;DHT22;2209;48.982;8.406;2023-05-07T10:05:24;18.70;99.90
4390;DHT22;2209;48.982;8.406;2023-05-07T10:07:46;18.70;99.90
4390;DHT22;2209;48.982;8.406;2023-05-07T10:10:09;18.70;99.90
4390;DHT22;2209;48.982;8.406;2023-05-07T10:12:32;18.80;99.90
4390;DHT22;2209;48.982;8.406;2023-05-07T10:14:59;18.70;99.90
4390;DHT22;2209;48.982;8.406;2023-05-07T10:17:23;18.70;99.90
4390;DHT22;2209;48.982;8.406;2023-05-07T10:19:46;18.80;99.90
4390;DHT22;2209;48.982;8.406;2023-05-07T10:22:08;18.70;99.90
4390;DHT22;2209;48.982;8.406;2023-05-07T10:24:32;18.80;99.90
4390;DHT22;2209;48.982;8.406;2023-05-07T10:26:56;18.80;99.90
4390;DHT22;2209;48.982;8.406;2023-05-07T10:29:29;18.80;99.90
4390;DHT22;2209;48.982;8.406;2023-05-07T10:31:57;18.90;99.90
4390;DHT22;2209;48.982;8.406;2023-05-07T10:34:24;18.90;99.90
4390;DHT22;2209;48.982;8.406;2023-05-07T10:36:48;18.90;99.90
4390;DHT22;2209;48.982;8.406;2023-05-07T10:39:12;18.90;99.90
4390;DHT22;2209;48.982;8.406;2023-05-07T10:41:35;18.90;99.90
4390;DHT22;2209;48.982;8.406;2023-05-07T10:43:57;18.90;99.90
4390;DHT22;2209;48.982;8.406;2023-05-07T10:46:22;18.90;99.90
4390;DHT22;2209;48.982;8.406;2023-05-07T10:49:06;18.90;99.90
4390;DHT22;2209;48.982;8.406;2023-05-07T10:51:30;19.00;99.90
4390;DHT22;2209;48.982;8.406;2023-05-07T10:54:18;18.90;99.90
4390;DHT22;2209;48.982;8.406;2023-05-07T10:56:41;19.00;99.90
4390;DHT22;2209;48.982;8.406;2023-05-07T10:59:33;19.00;99.90
4390;DHT22;2209;48.982;8.406;2023-05-07T11:01:57;19.00;99.90
4390;DHT22;2209;48.982;8.406;2023-05-07T11:04:20;19.10;99.90
4390;DHT22;2209;48.982;8.406;2023-05-07T11:10:09;19.20;99.90
4390;DHT22;2209;48.982;8.406;2023-05-07T11:12:52;19.20;99.90
4390;DHT22;2209;48.982;8.406;2023-05-07T11:15:15;19.30;99.90
4390;DHT22;2209;48.982;8.406;2023-05-07T11:17:55;19.30;99.90
4390;DHT22;2209;48.982;8.406;2023-05-07T11:20:18;19.40;99.90
4390;DHT22;2209;48.982;8.406;2023-05-07T11:22:40;19.50;99.90
4390;DHT22;2209;48.982;8.406;2023-05-07T11:25:03;19.50;99.90
4390;DHT22;2209;48.982;8.406;2023-05-07T11:27:27;19.60;99.90
4390;DHT22;2209;48.982;8.406;2023-05-07T11:29:50;19.60;99.90
4390;DHT22;2209;48.982;8.406;2023-05-07T11:32:12;19.70;99.90
4390;DHT22;2209;48.982;8.406;2023-05-07T11:34:34;19.70;99.90
4390;DHT22;2209;48.982;8.406;2023-05-07T11:36:58;19.80;99.90
4390;DHT22;2209;48.982;8.406;2023-05-07T11:39:24;19.80;99.90
4390;DHT22;2209;48.982;8.406;2023-05-07T11:41:46;19.80;99.90
4390;DHT22;2209;48.982;8.406;2023-05-07T11:44:10;19.80;99.90
4390;DHT22;2209;48.982;8.406;2023-05-07T11:46:32;19.80;99.90
4390;DHT22;2209;48.982;8.406;2023-05-07T11:48:56;19.90;99.90
4390;DHT22;2209;48.982;8.406;2023-05-07T11:51:22;19.90;99.90
4390;DHT22;2209;48.982;8.406;2023-05-07T11:53:45;19.90;99.90
4390;DHT22;2209;48.982;8.406;2023-05-07T11:56:08;19.90;99.90
4390;DHT22;2209;48.982;8.406;2023-05-07T11:58:30;19.90;99.90
4390;DHT22;2209;48.982;8.406;2023-05-07T12:00:54;20.00;99.90
4390;DHT22;2209;48.982;8.406;2023-05-07T12:03:16;20.00;99.90
4390;DHT22;2209;48.982;8.406;2023-05-07T12:05:39;20.00;99.90
4390;DHT22;2209;48.982;8.406;2023-05-07T12:08:02;20.00;99.90
4390;DHT22;2209;48.982;8.406;2023-05-07T12:10:25;20.10;99.90
4390;DHT22;2209;48.982;8.406;2023-05-07T12:12:47;20.10;99.90
4390;DHT22;2209;48.982;8.406;2023-05-07T12:15:09;20.20;99.90
4390;DHT22;2209;48.982;8.406;2023-05-07T12:17:33;20.20;99.90
4390;DHT22;2209;48.982;8.406;2023-05-07T12:19:55;20.20;99.90
4390;DHT22;2209;48.982;8.406;2023-05-07T12:22:18;20.20;99.90
4390;DHT22;2209;48.982;8.406;2023-05-07T12:24:44;20.30;99.90
4390;DHT22;2209;48.982;8.406;2023-05-07T12:27:06;20.30;99.90
4390;DHT22;2209;48.982;8.406;2023-05-07T12:29:28;20.30;99.90
4390;DHT22;2209;48.982;8.406;2023-05-07T12:31:51;20.30;99.90
4390;DHT22;2209;48.982;8.406;2023-05-07T12:34:15;20.30;99.90
4390;DHT22;2209;48.982;8.406;2023-05-07T12:36:37;20.30;99.90
4390;DHT22;2209;48.982;8.406;2023-05-07T12:39:00;20.40;99.90
4390;DHT22;2209;48.982;8.406;2023-05-07T12:41:22;20.50;99.90
4390;DHT22;2209;48.982;8.406;2023-05-07T12:43:47;20.50;99.90
4390;DHT22;2209;48.982;8.406;2023-05-07T12:46:10;20.60;99.90
4390;DHT22;2209;48.982;8.406;2023-05-07T12:48:37;20.60;99.90
4390;DHT22;2209;48.982;8.406;2023-05-07T12:51:02;20.70;99.90
4390;DHT22;2209;48.982;8.406;2023-05-07T12:53:25;20.60;99.90
4390;DHT22;2209;48.982;8.406;2023-05-07T12:55:49;20.70;99.90
4390;DHT22;2209;48.982;8.406;2023-05-07T12:58:15;20.70;99.90
4390;DHT22;2209;48.982;8.406;2023-05-07T13:00:38;20.80;99.90
4390;DHT22;2209;48.982;8.406;2023-05-07T13:03:01;20.80;99.90
4390;DHT22;2209;48.982;8.406;2023-05-07T13:05:23;20.90;99.90
4390;DHT22;2209;48.982;8.406;2023-05-07T13:07:54;20.90;99.90
4390;DHT22;2209;48.982;8.406;2023-05-07T13:10:17;20.90;99.90
4390;DHT22;2209;48.982;8.406;2023-05-07T13:12:39;21.00;99.90
4390;DHT22;2209;48.982;8.406;2023-05-07T13:15:01;21.00;99.90
4390;DHT22;2209;48.982;8.406;2023-05-07T13:17:23;21.10;99.90
4390;DHT22;2209;48.982;8.406;2023-05-07T13:19:45;21.20;99.90
4390;DHT22;2209;48.982;8.406;2023-05-07T13:22:07;21.20;99.90
4390;DHT22;2209;48.982;8.406;2023-05-07T13:24:31;21.30;99.90
4390;DHT22;2209;48.982;8.406;2023-05-07T13:26:53;21.30;99.90
4390;DHT22;2209;48.982;8.406;2023-05-07T13:29:15;21.40;99.90
4390;DHT22;2209;48.982;8.406;2023-05-07T13:31:37;21.40;99.90
4390;DHT22;2209;48.982;8.406;2023-05-07T13:34:03;21.50;99.90
4390;DHT22;2209;48.982;8.406;2023-05-07T13:36:25;21.50;99.90
4390;DHT22;2209;48.982;8.406;2023-05-07T13:38:47;21.60;99.90
4390;DHT22;2209;48.982;8.406;2023-05-07T13:41:10;21.60;99.90
4390;DHT22;2209;48.982;8.406;2023-05-07T13:43:33;21.70;99.90
4390;DHT22;2209;48.982;8.406;2023-05-07T13:45:55;21.70;99.90
4390;DHT22;2209;48.982;8.406;2023-05-07T13:48:17;21.80;99.90
4390;DHT22;2209;48.982;8.406;2023-05-07T13:50:39;21.80;99.90
4390;DHT22;2209;48.982;8.406;2023-05-07T13:53:01;21.80;99.90
4390;DHT22;2209;48.982;8.406;2023-05-07T13:55:24;21.80;99.90
4390;DHT22;2209;48.982;8.406;2023-05-07T13:57:53;21.80;99.90
4390;DHT22;2209;48.982;8.406;2023-05-07T14:00:17;21.70;99.90
4390;DHT22;2209;48.982;8.406;2023-05-07T14:02:39;21.70;99.90
4390;DHT22;2209;48.982;8.406;2023-05-07T14:05:01;21.70;99.90
4390;DHT22;2209;48.982;8.406;2023-05-07T14:07:23;21.80;99.90
4390;DHT22;2209;48.982;8.406;2023-05-07T14:09:45;21.80;99.90
4390;DHT22;2209;48.982;8.406;2023-05-07T14:12:07;21.80;99.90
4390;DHT22;2209;48.982;8.406;2023-05-07T14:14:31;21.80;99.90
4390;DHT22;2209;48.982;8.406;2023-05-07T14:16:53;21.80;99.90
4390;DHT22;2209;48.982;8.406;2023-05-07T14:19:15;21.70;99.90
4390;DHT22;2209;48.982;8.406;2023-05-07T14:21:37;21.70;99.90
4390;DHT22;2209;48.982;8.406;2023-05-07T14:24:00;21.70;99.90
4390;DHT22;2209;48.982;8.406;2023-05-07T14:26:22;21.60;99.90
4390;DHT22;2209;48.982;8.406;2023-05-07T14:28:44;21.60;99.90
4390;DHT22;2209;48.982;8.406;2023-05-07T14:31:08;21.50;99.90
4390;DHT22;2209;48.982;8.406;2023-05-07T14:33:30;21.60;98.90
4390;DHT22;2209;48.982;8.406;2023-05-07T14:35:52;21.50;98.40
4390;DHT22;2209;48.982;8.406;2023-05-07T14:38:14;21.50;98.70
4390;DHT22;2209;48.982;8.406;2023-05-07T14:40:37;21.50;98.90
4390;DHT22;2209;48.982;8.406;2023-05-07T14:42:59;21.50;99.00
4390;DHT22;2209;48.982;8.406;2023-05-07T14:45:21;21.50;98.80
4390;DHT22;2209;48.982;8.406;2023-05-07T14:47:44;21.50;98.60
4390;DHT22;2209;48.982;8.406;2023-05-07T14:50:07;21.50;98.90
4390;DHT22;2209;48.982;8.406;2023-05-07T14:52:29;21.50;98.80
4390;DHT22;2209;48.982;8.406;2023-05-07T14:54:51;21.50;99.30
4390;DHT22;2209;48.982;8.406;2023-05-07T14:57:13;21.50;99.60
4390;DHT22;2209;48.982;8.406;2023-05-07T14:59:37;21.60;99.90
4390;DHT22;2209;48.982;8.406;2023-05-07T15:01:59;21.60;99.90
4390;DHT22;2209;48.982;8.406;2023-05-07T15:04:23;21.60;99.90
4390;DHT22;2209;48.982;8.406;2023-05-07T15:06:46;21.60;99.90
4390;DHT22;2209;48.982;8.406;2023-05-07T15:09:08;21.70;99.90
4390;DHT22;2209;48.982;8.406;2023-05-07T15:11:30;21.70;99.90
4390;DHT22;2209;48.982;8.406;2023-05-07T15:13:52;21.70;99.90
4390;DHT22;2209;48.982;8.406;2023-05-07T15:16:15;21.70;99.90
4390;DHT22;2209;48.982;8.406;2023-05-07T15:18:37;21.80;99.90
4390;DHT22;2209;48.982;8.406;2023-05-07T15:21:00;21.80;99.90
4390;DHT22;2209;48.982;8.406;2023-05-07T15:23:23;21.80;99.90
4390;DHT22;2209;48.982;8.406;2023-05-07T15:25:45;21.80;99.90
4390;DHT22;2209;48.982;8.406;2023-05-07T15:28:07;21.80;99.90
4390;DHT22;2209;48.982;8.406;2023-05-07T15:30:29;21.70;99.90
4390;DHT22;2209;48.982;8.406;2023-05-07T15:32:52;21.70;99.90
4390;DHT22;2209;48.982;8.406;2023-05-07T15:35:14;21.70;99.90
4390;DHT22;2209;48.982;8.406;2023-05-07T15:37:38;21.70;99.90